Bookmark and Share
Track history (hours):
 

Sitc Xiamen

Last reported at 2014-Apr-24 08:33 UTC. Time now 2014-Apr-24 09:06 UTC.
Position N 35°31' E 139°52'.

Length 145 m; draft 6.8 m.

Type: Ship (hazmat cat A). MMSI: 355090000.

NotesDate/timePositionNaut miles runAvg speedWind from/ knotsBaromVisibWave heightAir tempDewpointWater temp
2014-Apr-24 08:33N 35°31' E 139°52'1212.0
2014-Apr-24 07:33N 35°24' E 139°41'0 0.4
2014-Apr-24 06:33N 35°24' E 139°41'0 0.0
2014-Apr-24 05:33N 35°24' E 139°41'0 0.0
2014-Apr-24 04:33N 35°24' E 139°41'2 1.6
2014-Apr-24 03:33N 35°23' E 139°41'1211.9
2014-Apr-24 02:34N 35°12' E 139°47'1414.0
2014-Apr-24 01:33N 35°00' E 139°37'1614.4
2014-Apr-24 00:26N 34°50' E 139°21'50914.2
2014-Apr-22 12:33N 34°01' E 129°07'36914.8
2014-Apr-21 11:33N 37°32' E 122°53'1615.9
2014-Apr-21 10:33N 37°40' E 122°36'1616.4
2014-Apr-21 09:34N 37°39' E 122°16'1616.3
2014-Apr-21 08:33N 37°40' E 121°55'1615.9
2014-Apr-21 07:33N 37°40' E 121°35'1110.9
2014-Apr-21 06:33N 37°35' E 121°23'0 0.0
2014-Apr-21 05:31N 37°35' E 121°23'0 0.0
2014-Apr-21 04:31N 37°35' E 121°23'0 0.0
2014-Apr-21 03:31N 37°35' E 121°23'0 0.0
2014-Apr-21 02:31N 37°35' E 121°23'0 0.0
2014-Apr-21 01:31N 37°35' E 121°23'0 0.0
2014-Apr-21 00:31N 37°35' E 121°23'0 0.0
2014-Apr-20 23:31N 37°35' E 121°23'0 0.0
2014-Apr-20 22:31N 37°35' E 121°23'0 0.0
2014-Apr-20 21:31N 37°35' E 121°23'0 0.0
2014-Apr-20 20:31N 37°35' E 121°23'0 0.0
2014-Apr-20 19:31N 37°35' E 121°23'0 0.0
2014-Apr-20 18:31N 37°35' E 121°23'0 0.0
2014-Apr-20 17:31N 37°35' E 121°23'1 1.1
2014-Apr-20 16:33N 37°35' E 121°24'1110.8
2014-Apr-20 15:33N 37°45' E 121°18'49 1.4
2014-Apr-19 04:29N 38°32' E 121°29'1414.5
2014-Apr-19 03:33N 38°39' E 121°45'82 3.7
2014-Apr-18 05:33N 37°38' E 122°55'1414.5
2014-Apr-18 04:33N 37°26' E 123°06'59613.5
2014-Apr-16 08:27N 34°34' E 134°51'1314.3
2014-Apr-16 07:34N 34°36' E 135°06'7 6.2
2014-Apr-16 06:23N 34°40' E 135°14'0 0.1
2014-Apr-16 05:29N 34°40' E 135°14'0 0.0
2014-Apr-16 04:29N 34°40' E 135°14'0 0.0
2014-Apr-16 03:29N 34°40' E 135°14'0 0.0
2014-Apr-16 02:29N 34°40' E 135°14'0 0.0
2014-Apr-16 01:23N 34°40' E 135°14'0 0.0
2014-Apr-16 00:23N 34°40' E 135°14'0 0.0
2014-Apr-15 23:17N 34°40' E 135°14'0 0.5
2014-Apr-15 22:33N 34°40' E 135°14'3 2.3
2014-Apr-15 21:22N 34°37' E 135°13'0 0.0
2014-Apr-15 20:28N 34°37' E 135°13'0 0.0
2014-Apr-15 19:28N 34°37' E 135°13'0 0.0
2014-Apr-15 18:16N 34°37' E 135°13'0 0.0
2014-Apr-15 17:28N 34°37' E 135°13'0 0.1
2014-Apr-15 16:22N 34°37' E 135°13'1 0.9
2014-Apr-15 15:33N 34°36' E 135°14'1413.7
2014-Apr-15 14:33N 34°24' E 135°05'15 7.3
2014-Apr-15 12:34N 34°11' E 134°60'222 8.2
2014-Apr-14 09:30N 34°54' E 139°24'1516.5
2014-Apr-14 08:34N 35°04' E 139°39'  

Dump ship's entire track history

sailing weather and tide predictions

Sitc Xiamen — 3ELU — position and weather